CDT,Max TemperatureF,Mean TemperatureF,Min TemperatureF,Max Dew PointF,MeanDew PointF,Min DewpointF,Max Humidity, Mean Humidity, Min Humidity, Max Sea Level PressureIn, Mean Sea Level PressureIn, Min Sea Level PressureIn, Max VisibilityMiles, Mean VisibilityMiles, Min VisibilityMiles, Max Wind SpeedMPH, Mean Wind SpeedMPH, Max Gust SpeedMPH,PrecipitationIn, CloudCover, Events, WindDirDegrees
2011-10-1,73,60,48,46,41,36,86,51,25,30.09,30.01,29.93,10,10,10,12,4,21,0.00,0,,318
2011-10-2,75,60,46,45,40,35,80,55,24,30.14,30.09,30.04,10,10,10,8,2,,0.00,0,,321
2011-10-3,81,61,41,46,39,29,89,56,15,30.22,30.16,30.10,10,10,10,7,1,,0.00,0,Rain,10
2011-10-4,84,64,43,54,46,40,90,61,24,30.24,30.18,30.12,10,10,3,6,1,,0.00,0,Rain,37
2011-10-5,84,66,48,54,49,45,90,64,27,30.24,30.17,30.11,10,10,5,6,1,,0.00,0,,66
2011-10-6,86,69,52,56,51,48,89,59,29,30.23,30.18,30.14,10,10,5,12,3,17,0.00,0,,53
2011-10-7,84,70,55,57,52,49,80,55,33,30.29,30.23,30.19,10,10,10,13,4,17,0.00,0,,46
2011-10-8,86,74,62,58,55,52,75,56,36,30.30,30.23,30.17,10,10,10,14,6,23,0.00,0,,51
2011-10-9,71,66,61,63,57,47,87,74,47,30.22,30.14,30.04,10,9,2,12,6,21,0.15,5,Rain,38
2011-10-10,70,67,64,63,62,59,90,82,70,30.04,29.94,29.85,10,8,1,12,7,23,1.26,8,Rain,30
2011-10-11,70,67,64,64,63,60,90,87,78,29.86,29.82,29.80,10,6,2,9,6,,0.24,8,Rain,27
2011-10-12,70,66,63,64,62,60,93,86,75,29.86,29.82,29.79,10,8,2,5,1,,0.02,8,Rain,319
2011-10-13,81,70,60,64,61,57,93,81,50,29.81,29.74,29.65,10,8,0,10,3,30,0.46,4,Fog-Rain-Thunderstorm,262
2011-10-14,81,68,53,57,52,45,90,67,28,30.01,29.91,29.81,10,10,10,7,3,,0.00,0,Rain,299
2011-10-15,87,68,50,58,50,41,89,68,21,30.11,30.06,30.02,10,10,7,8,1,,0.01,0,Rain,303
2011-10-16,87,68,48,61,51,45,90,68,23,30.16,30.09,30.02,10,10,7,5,0,,0.00,0,Rain,110
2011-10-17,87,68,50,63,53,48,93,76,26,30.03,29.96,29.84,10,7,0,5,0,,0.01,2,Fog-Rain,105
2011-10-18,77,66,55,70,62,50,90,84,59,29.83,29.66,29.52,10,8,2,6,1,,0.08,3,Rain,147
2011-10-19,66,58,50,63,50,37,90,77,38,29.88,29.60,29.49,10,9,1,13,5,22,0.01,7,Rain,294
2011-10-20,64,52,41,41,37,34,86,59,34,30.10,29.99,29.88,10,10,10,10,5,21,0.00,0,,272
2011-10-21,68,52,37,42,37,33,89,59,28,30.20,30.13,30.09,10,10,9,7,2,,0.00,0,Snow,310
2011-10-22,70,52,35,45,39,31,89,59,31,30.17,30.11,30.06,10,10,10,7,2,,0.00,0,,20
2011-10-23,69,53,37,53,43,35,89,77,38,30.13,30.09,30.05,10,9,5,5,0,,0.00,0,Rain,-1
2011-10-24,80,66,48,52,49,45,90,62,32,30.19,30.12,30.09,10,10,10,6,0,,0.00,2,,335
2011-10-25,80,62,44,55,46,40,90,72,27,30.24,30.17,30.12,10,9,5,5,1,,0.01,0,Rain,168
2011-10-26,81,63,45,57,49,42,90,73,35,30.15,30.05,29.98,10,9,6,8,1,18,0.00,0,Rain,139
2011-10-27,79,64,50,60,54,47,90,80,45,29.98,29.94,29.86,10,7,2,4,0,,0.00,4,Rain,160
2011-10-28,78,65,52,60,52,49,93,84,45,29.97,29.92,29.85,10,4,0,4,0,,0.00,6,Fog-Rain,308
2011-10-29,,,,,,,,,,,,,,,,,,,,,,
2011-10-30,,,,,,,,,,,,,,,,,,,,,,
2011-10-31,,,,,,,,,,,,,,,,,,,,,,